Time;durP1;ratioP1;P1;durP2;ratioP2;P2;SDS_P1;SDS_P2;PMS_P1;PMS_P2;Temp;Humidity;BMP_temperature;BMP_pressure;BME280_temperature;BME280_humidity;BME280_pressure;Samples;Min_cycle;Max_cycle;Signal;HPM_P1;HPM_P2
2022/11/17 00:01:44;;;;;;;1.60;1.20;;;;;;;;;;4979584;28;20419;-89
2022/11/17 00:04:10;;;;;;;2.70;1.40;;;;;;;;;;4979550;28;20425;-89
2022/11/17 00:06:36;;;;;;;1.90;1.10;;;;;;;;;;4997170;28;20941;-89
2022/11/17 00:09:02;;;;;;;4.40;2.13;;;;;;;;;;4997505;28;20482;-88
2022/11/17 00:14:31;;;;;;;3.27;1.00;;;;;;;;;;4979497;28;20429;-89
2022/11/17 00:14:32;;;;;;;5.90;2.50;;;;;;;;;;4996940;28;20844;-88
2022/11/17 00:17:02;;;;;;;2.30;1.27;;;;;;;;;;4979270;28;20430;-90
2022/11/17 00:22:13;;;;;;;3.03;1.47;;;;;;;;;;4996922;28;20436;-89
2022/11/17 00:24:39;;;;;;;2.40;1.53;;;;;;;;;;4979179;28;20409;-89
2022/11/17 00:27:05;;;;;;;3.53;1.10;;;;;;;;;;4979064;28;20432;-88
2022/11/17 00:29:31;;;;;;;3.50;1.50;;;;;;;;;;4996688;28;20452;-90
2022/11/17 00:34:42;;;;;;;2.97;1.90;;;;;;;;;;4995964;28;20447;-87
2022/11/17 00:37:09;;;;;;;3.00;1.70;;;;;;;;;;4995610;28;20405;-87
2022/11/17 00:39:35;;;;;;;2.83;1.93;;;;;;;;;;4975375;28;20584;-87
2022/11/17 00:42:01;;;;;;;2.70;1.70;;;;;;;;;;4995519;28;20445;-86
2022/11/17 00:44:27;;;;;;;2.80;1.30;;;;;;;;;;4978225;28;20995;-87
2022/11/17 00:46:53;;;;;;;4.53;2.30;;;;;;;;;;4995817;28;20412;-89
2022/11/17 00:49:20;;;;;;;4.57;2.50;;;;;;;;;;4995648;28;20559;-91
2022/11/17 00:51:46;;;;;;;3.57;2.57;;;;;;;;;;4995545;28;20779;-87
2022/11/17 00:54:12;;;;;;;2.00;1.57;;;;;;;;;;4995348;28;20431;-86
2022/11/17 00:56:39;;;;;;;3.23;2.03;;;;;;;;;;4978254;28;20424;-87
2022/11/17 00:59:05;;;;;;;4.53;2.37;;;;;;;;;;4995639;28;20556;-88
2022/11/17 01:01:31;;;;;;;3.67;2.40;;;;;;;;;;4995061;28;20426;-87
2022/11/17 01:04:01;;;;;;;2.70;2.50;;;;;;;;;;4994508;28;20415;-86
2022/11/17 01:06:29;;;;;;;3.63;3.13;;;;;;;;;;4994752;28;20457;-87
2022/11/17 01:08:55;;;;;;;3.90;1.80;;;;;;;;;;4977420;28;20760;-86
2022/11/17 01:11:21;;;;;;;4.07;2.90;;;;;;;;;;4995012;28;20457;-89
2022/11/17 01:13:47;;;;;;;3.77;2.93;;;;;;;;;;4977374;28;20427;-89
2022/11/17 01:16:17;;;;;;;4.73;2.47;;;;;;;;;;4994988;28;20428;-88
2022/11/17 01:18:44;;;;;;;5.03;2.63;;;;;;;;;;4994477;28;20418;-88
2022/11/17 01:21:11;;;;;;;9.70;3.07;;;;;;;;;;4977756;28;20497;-89
2022/11/17 01:23:38;;;;;;;3.60;2.20;;;;;;;;;;4995370;28;20404;-87
2022/11/17 01:26:05;;;;;;;4.80;2.93;;;;;;;;;;4978163;28;20478;-88
2022/11/17 01:28:31;;;;;;;4.30;2.33;;;;;;;;;;4995723;28;20420;-92
2022/11/17 01:31:04;;;;;;;4.73;3.10;;;;;;;;;;4978030;28;20425;-88
2022/11/17 01:33:30;;;;;;;3.73;3.33;;;;;;;;;;4977999;28;20458;-89
2022/11/17 01:35:59;;;;;;;3.20;2.80;;;;;;;;;;4995586;28;20407;-90
2022/11/17 01:38:25;;;;;;;4.17;3.17;;;;;;;;;;4977803;28;20878;-86
2022/11/17 01:40:58;;;;;;;4.80;2.53;;;;;;;;;;4978179;28;20519;-89
2022/11/17 01:43:36;;;;;;;5.63;2.90;;;;;;;;;;4977872;28;20506;-90
2022/11/17 01:46:02;;;;;;;3.73;2.43;;;;;;;;;;4978095;28;20512;-90
2022/11/17 01:48:28;;;;;;;5.13;3.10;;;;;;;;;;4977321;28;20455;-92
2022/11/17 01:50:54;;;;;;;2.60;2.03;;;;;;;;;;4977940;28;20453;-90
2022/11/17 01:53:21;;;;;;;2.77;2.27;;;;;;;;;;4995194;28;20416;-89
2022/11/17 01:55:49;;;;;;;6.20;2.37;;;;;;;;;;4995966;28;20444;-89
2022/11/17 01:58:20;;;;;;;5.70;3.70;;;;;;;;;;4995639;28;20763;-88
2022/11/17 02:00:46;;;;;;;5.00;3.20;;;;;;;;;;4995439;28;20483;-88
2022/11/17 02:03:13;;;;;;;6.07;3.40;;;;;;;;;;4977521;28;20424;-89
2022/11/17 02:05:42;;;;;;;4.20;3.30;;;;;;;;;;4978085;28;20419;-88
2022/11/17 02:08:09;;;;;;;3.23;2.00;;;;;;;;;;4977652;28;20464;-88
2022/11/17 02:10:35;;;;;;;4.50;4.00;;;;;;;;;;4995051;28;20448;-89
2022/11/17 02:13:01;;;;;;;3.97;2.40;;;;;;;;;;4977381;28;20490;-86
2022/11/17 02:15:28;;;;;;;5.33;3.67;;;;;;;;;;4995104;28;20909;-91
2022/11/17 02:17:54;;;;;;;4.83;3.97;;;;;;;;;;4994622;28;20418;-87
2022/11/17 02:20:38;;;;;;;4.20;2.27;;;;;;;;;;4977396;28;20480;-88
2022/11/17 02:23:32;;;;;;;6.30;3.90;;;;;;;;;;4994801;28;20416;-91
2022/11/17 02:26:07;;;;;;;5.37;2.90;;;;;;;;;;4977479;28;20838;-87
2022/11/17 02:28:52;;;;;;;5.23;4.17;;;;;;;;;;4977429;28;20902;-88
2022/11/17 02:31:18;;;;;;;5.00;3.43;;;;;;;;;;4977586;28;20412;-88
2022/11/17 02:33:44;;;;;;;3.87;3.50;;;;;;;;;;4994084;28;20971;-85
2022/11/17 02:36:19;;;;;;;5.43;3.10;;;;;;;;;;4976478;28;20418;-87
2022/11/17 02:39:04;;;;;;;3.37;2.60;;;;;;;;;;4976686;28;20422;-90
2022/11/17 02:41:34;;;;;;;4.47;3.00;;;;;;;;;;4976754;28;20447;-87
2022/11/17 02:44:07;;;;;;;4.60;3.50;;;;;;;;;;4993796;28;20454;-87
2022/11/17 02:46:44;;;;;;;3.67;2.90;;;;;;;;;;4977019;28;20429;-87
2022/11/17 02:49:27;;;;;;;3.67;2.40;;;;;;;;;;4980479;28;20913;-88
2022/11/17 02:52:02;;;;;;;5.63;4.17;;;;;;;;;;4980374;28;20422;-87
2022/11/17 02:54:29;;;;;;;7.53;3.67;;;;;;;;;;4997805;28;20431;-86
2022/11/17 02:56:55;;;;;;;5.43;3.80;;;;;;;;;;4980287;28;20430;-86
2022/11/17 02:59:27;;;;;;;5.50;3.50;;;;;;;;;;4997794;28;20481;-87
2022/11/17 03:02:05;;;;;;;4.80;3.27;;;;;;;;;;4980348;28;20522;-87
2022/11/17 03:04:34;;;;;;;3.80;3.37;;;;;;;;;;4980539;28;20480;-88
2022/11/17 03:07:19;;;;;;;5.90;3.83;;;;;;;;;;4998125;28;20423;-88
2022/11/17 03:09:48;;;;;;;4.73;4.03;;;;;;;;;;4997999;28;20478;-86
2022/11/17 03:12:26;;;;;;;6.53;3.60;;;;;;;;;;4998663;28;20915;-88
2022/11/17 03:14:52;;;;;;;3.60;3.20;;;;;;;;;;4997798;28;20412;-87
2022/11/17 03:17:34;;;;;;;5.50;3.50;;;;;;;;;;4997413;28;20490;-88
2022/11/17 03:20:03;;;;;;;3.70;3.07;;;;;;;;;;4997795;28;20238;-86
2022/11/17 03:22:40;;;;;;;5.20;4.43;;;;;;;;;;4980538;28;20938;-88
2022/11/17 03:25:10;;;;;;;4.03;2.87;;;;;;;;;;4980597;28;20417;-87
2022/11/17 03:27:42;;;;;;;4.97;3.20;;;;;;;;;;4980663;28;20424;-91
2022/11/17 03:30:09;;;;;;;5.20;3.87;;;;;;;;;;4980348;28;20411;-89
2022/11/17 03:32:43;;;;;;;3.60;2.97;;;;;;;;;;4996861;28;20415;-89
2022/11/17 03:35:10;;;;;;;4.80;3.50;;;;;;;;;;4980117;28;20415;-87
2022/11/17 03:37:39;;;;;;;5.30;3.27;;;;;;;;;;4997356;28;20415;-87
2022/11/17 03:40:08;;;;;;;3.17;2.30;;;;;;;;;;4997099;28;20492;-87
2022/11/17 03:42:36;;;;;;;6.23;3.73;;;;;;;;;;4980348;28;20410;-89
2022/11/17 03:45:04;;;;;;;4.53;3.17;;;;;;;;;;4979459;28;20423;-87
2022/11/17 03:47:31;;;;;;;5.93;2.90;;;;;;;;;;4979617;28;20987;-87
2022/11/17 03:50:01;;;;;;;4.33;3.10;;;;;;;;;;4979444;28;20416;-87
2022/11/17 03:52:28;;;;;;;5.33;3.17;;;;;;;;;;4996377;28;20415;-86
2022/11/17 03:54:54;;;;;;;3.97;3.67;;;;;;;;;;4979580;28;20989;-86
2022/11/17 03:57:31;;;;;;;5.07;3.67;;;;;;;;;;4996891;28;20446;-88
2022/11/17 03:59:58;;;;;;;5.60;2.53;;;;;;;;;;4995967;28;20474;-88
2022/11/17 04:02:25;;;;;;;4.77;3.47;;;;;;;;;;4979062;28;20516;-88
2022/11/17 04:05:06;;;;;;;5.37;3.10;;;;;;;;;;4979202;28;20427;-87
2022/11/17 04:07:36;;;;;;;4.40;2.87;;;;;;;;;;4996617;28;20401;-89
2022/11/17 04:10:04;;;;;;;3.93;2.93;;;;;;;;;;4996926;28;20415;-89
2022/11/17 04:18:10;;;;;;;3.33;2.03;;;;;;;;;;4973901;28;20770;-92
2022/11/17 04:20:36;;;;;;;5.37;3.27;;;;;;;;;;4979502;28;20478;-91
2022/11/17 04:23:06;;;;;;;3.83;3.30;;;;;;;;;;4979183;28;20412;-85
2022/11/17 04:28:38;;;;;;;3.97;2.83;;;;;;;;;;4996943;28;20440;-87
2022/11/17 04:31:03;;;;;;;4.93;2.60;;;;;;;;;;4979504;28;20632;-90
2022/11/17 04:33:29;;;;;;;2.10;1.53;;;;;;;;;;4996155;28;20422;-89
2022/11/17 04:35:56;;;;;;;3.17;2.33;;;;;;;;;;4978649;28;20937;-90
2022/11/17 04:38:22;;;;;;;5.53;2.83;;;;;;;;;;4996331;28;20470;-88
2022/11/17 04:43:32;;;;;;;3.13;2.60;;;;;;;;;;4995611;28;20856;-88
2022/11/17 04:45:59;;;;;;;5.90;3.80;;;;;;;;;;4995963;28;20419;-87
2022/11/17 04:48:25;;;;;;;5.27;3.10;;;;;;;;;;4977692;28;20421;-89
2022/11/17 04:50:54;;;;;;;4.47;3.57;;;;;;;;;;4978245;28;20434;-88
2022/11/17 04:53:20;;;;;;;4.80;3.13;;;;;;;;;;4995916;28;20415;-87
2022/11/17 04:55:46;;;;;;;5.13;3.17;;;;;;;;;;4995500;28;20974;-86
2022/11/17 04:58:12;;;;;;;4.27;3.37;;;;;;;;;;4995679;28;20404;-91
2022/11/17 05:00:38;;;;;;;6.07;3.27;;;;;;;;;;4978418;28;20549;-88
2022/11/17 05:03:04;;;;;;;4.93;3.03;;;;;;;;;;4995190;28;20419;-87
2022/11/17 05:05:30;;;;;;;5.00;3.67;;;;;;;;;;4978357;28;20426;-85
2022/11/17 05:07:56;;;;;;;5.20;3.80;;;;;;;;;;4978516;28;20420;-89
2022/11/17 05:13:20;;;;;;;4.43;3.53;;;;;;;;;;4995776;28;20454;-90
2022/11/17 05:13:26;;;;;;;3.60;3.30;;;;;;;;;;4995826;28;20404;-93
2022/11/17 05:18:44;;;;;;;5.17;3.70;;;;;;;;;;4996099;28;20398;-90
2022/11/17 05:21:11;;;;;;;7.13;4.83;;;;;;;;;;4978244;28;20881;-91
2022/11/17 05:23:52;;;;;;;5.23;3.67;;;;;;;;;;4978466;28;20787;-89
2022/11/17 05:26:19;;;;;;;3.73;3.30;;;;;;;;;;4978675;28;20928;-93
2022/11/17 05:28:45;;;;;;;5.83;4.30;;;;;;;;;;4979016;28;20438;-90
2022/11/17 05:31:11;;;;;;;7.10;4.00;;;;;;;;;;4978323;28;20514;-90
2022/11/17 05:33:37;;;;;;;4.20;3.40;;;;;;;;;;4998707;28;20418;-91
2022/11/17 05:36:03;;;;;;;4.43;3.30;;;;;;;;;;4982829;28;20418;-89
2022/11/17 05:38:29;;;;;;;5.43;3.93;;;;;;;;;;4983715;28;20503;-91
2022/11/17 05:40:55;;;;;;;5.37;4.47;;;;;;;;;;4998712;28;20526;-88
2022/11/17 05:43:22;;;;;;;6.13;4.70;;;;;;;;;;4988091;28;20510;-89
2022/11/17 05:45:48;;;;;;;5.40;3.47;;;;;;;;;;4999141;28;20426;-87
2022/11/17 05:48:14;;;;;;;8.03;5.43;;;;;;;;;;4999182;28;20766;-87
2022/11/17 05:50:40;;;;;;;4.20;3.23;;;;;;;;;;4999351;28;20923;-87
2022/11/17 05:53:06;;;;;;;4.60;4.07;;;;;;;;;;5017348;28;20478;-88
2022/11/17 05:55:32;;;;;;;3.80;3.30;;;;;;;;;;5017799;28;20423;-86
2022/11/17 05:58:00;;;;;;;5.97;4.40;;;;;;;;;;5000345;28;20477;-89
2022/11/17 06:00:26;;;;;;;4.73;3.67;;;;;;;;;;5017624;28;20501;-89
2022/11/17 06:02:55;;;;;;;7.13;4.33;;;;;;;;;;5017294;28;20412;-89
2022/11/17 06:05:22;;;;;;;5.30;3.90;;;;;;;;;;4999517;28;20426;-91
2022/11/17 06:07:49;;;;;;;6.47;5.37;;;;;;;;;;5017127;28;20414;-87
2022/11/17 06:10:15;;;;;;;6.63;4.60;;;;;;;;;;4999071;28;20521;-91
2022/11/17 06:12:41;;;;;;;5.30;3.77;;;;;;;;;;5018151;28;20406;-90
2022/11/17 06:15:07;;;;;;;11.47;5.90;;;;;;;;;;4999385;28;20441;-89
2022/11/17 06:17:38;;;;;;;5.10;3.67;;;;;;;;;;5000410;28;20417;-88
2022/11/17 06:20:07;;;;;;;5.10;4.33;;;;;;;;;;4998173;28;20502;-88
2022/11/17 06:22:33;;;;;;;5.57;4.33;;;;;;;;;;5001662;28;20410;-86
2022/11/17 06:24:59;;;;;;;7.20;4.50;;;;;;;;;;4978682;28;20432;-87
2022/11/17 06:27:26;;;;;;;6.80;4.33;;;;;;;;;;4971650;28;20451;-85
2022/11/17 06:29:52;;;;;;;5.93;3.97;;;;;;;;;;4986687;28;20417;-87
2022/11/17 06:32:18;;;;;;;7.40;5.40;;;;;;;;;;4973868;28;20525;-88
2022/11/17 06:34:45;;;;;;;6.23;4.70;;;;;;;;;;4999216;28;20427;-87
2022/11/17 06:37:11;;;;;;;7.87;4.80;;;;;;;;;;4978901;28;20458;-86
2022/11/17 06:39:37;;;;;;;5.37;4.27;;;;;;;;;;4999456;28;20490;-91
2022/11/17 06:42:03;;;;;;;6.43;5.40;;;;;;;;;;4985778;28;20514;-87
2022/11/17 06:44:29;;;;;;;5.67;4.10;;;;;;;;;;4981836;28;20424;-89
2022/11/17 06:46:55;;;;;;;5.50;4.20;;;;;;;;;;4980507;28;20427;-93
2022/11/17 06:49:21;;;;;;;5.33;4.20;;;;;;;;;;4981282;28;20419;-88
2022/11/17 06:51:47;;;;;;;5.73;4.73;;;;;;;;;;4998664;28;20407;-90
2022/11/17 06:54:16;;;;;;;7.40;4.77;;;;;;;;;;4998021;28;20413;-89
2022/11/17 06:56:42;;;;;;;7.50;4.73;;;;;;;;;;4997371;28;20421;-89
2022/11/17 06:59:08;;;;;;;6.67;4.77;;;;;;;;;;4979971;28;20510;-88
2022/11/17 07:01:34;;;;;;;4.83;4.33;;;;;;;;;;4996370;28;20427;-86
2022/11/17 07:04:03;;;;;;;7.10;5.00;;;;;;;;;;4979621;28;20427;-86
2022/11/17 07:06:30;;;;;;;6.90;4.87;;;;;;;;;;4979540;28;20423;-88
2022/11/17 07:08:56;;;;;;;5.70;4.13;;;;;;;;;;4979556;28;20417;-89
2022/11/17 07:11:22;;;;;;;6.87;4.60;;;;;;;;;;4979536;28;20426;-88
2022/11/17 07:13:48;;;;;;;7.97;5.67;;;;;;;;;;4979497;28;20447;-86
2022/11/17 07:16:15;;;;;;;6.43;4.63;;;;;;;;;;4978947;28;20434;-86
2022/11/17 07:18:42;;;;;;;5.80;3.83;;;;;;;;;;4979308;28;20423;-86
2022/11/17 07:21:09;;;;;;;6.60;5.30;;;;;;;;;;4979257;28;20486;-87
2022/11/17 07:23:36;;;;;;;5.90;3.67;;;;;;;;;;4979287;28;20780;-89
2022/11/17 07:26:02;;;;;;;6.10;4.40;;;;;;;;;;4979163;28;20986;-90
2022/11/17 07:28:29;;;;;;;7.77;6.93;;;;;;;;;;4979183;28;20423;-86
2022/11/17 07:30:55;;;;;;;5.97;4.80;;;;;;;;;;4978817;28;20990;-86
2022/11/17 07:33:21;;;;;;;5.67;4.53;;;;;;;;;;4995810;28;20443;-87
2022/11/17 07:35:48;;;;;;;6.60;3.33;;;;;;;;;;4996283;28;20907;-86
2022/11/17 07:38:14;;;;;;;6.80;3.97;;;;;;;;;;4978801;28;20501;-86
2022/11/17 07:40:40;;;;;;;5.20;4.30;;;;;;;;;;4995907;28;20570;-88
2022/11/17 07:43:06;;;;;;;5.30;4.37;;;;;;;;;;4996232;28;20415;-84
2022/11/17 07:45:32;;;;;;;5.90;3.70;;;;;;;;;;4996040;28;20822;-88
2022/11/17 07:47:59;;;;;;;7.57;5.83;;;;;;;;;;4995801;28;20419;-87
2022/11/17 07:50:26;;;;;;;6.50;4.33;;;;;;;;;;4978753;28;20439;-92
2022/11/17 07:52:54;;;;;;;9.20;5.57;;;;;;;;;;4978783;28;20886;-86
2022/11/17 07:55:21;;;;;;;7.47;5.07;;;;;;;;;;4978762;28;20415;-90
2022/11/17 07:57:47;;;;;;;5.07;3.93;;;;;;;;;;4978973;28;20476;-89
2022/11/17 08:00:13;;;;;;;6.63;5.47;;;;;;;;;;4996526;28;20554;-89
2022/11/17 08:02:42;;;;;;;7.07;5.30;;;;;;;;;;4978446;28;20438;-86
2022/11/17 08:05:08;;;;;;;5.13;4.57;;;;;;;;;;4978896;28;20920;-86
2022/11/17 08:07:34;;;;;;;7.00;4.87;;;;;;;;;;4997278;28;20442;-89
2022/11/17 08:10:00;;;;;;;6.10;4.40;;;;;;;;;;4985662;28;20477;-90
2022/11/17 08:12:30;;;;;;;6.97;4.30;;;;;;;;;;4978293;28;20807;-89
2022/11/17 08:14:59;;;;;;;7.17;5.10;;;;;;;;;;4978800;28;20911;-87
2022/11/17 08:17:26;;;;;;;7.20;4.03;;;;;;;;;;4978349;28;20423;-88
2022/11/17 08:19:52;;;;;;;5.63;4.07;;;;;;;;;;4978583;28;21050;-86
2022/11/17 08:22:18;;;;;;;8.83;5.73;;;;;;;;;;4978307;28;20434;-87
2022/11/17 08:24:44;;;;;;;6.63;3.87;;;;;;;;;;4995636;28;20422;-88
2022/11/17 08:27:10;;;;;;;6.37;4.50;;;;;;;;;;4978574;28;20414;-89
2022/11/17 08:29:35;;;;;;;7.87;4.73;;;;;;;;;;4995587;28;20415;-89
2022/11/17 08:32:01;;;;;;;7.77;5.20;;;;;;;;;;4977782;28;20418;-88
2022/11/17 08:34:27;;;;;;;6.47;4.80;;;;;;;;;;4995557;28;20419;-87
2022/11/17 08:36:53;;;;;;;5.67;2.90;;;;;;;;;;4995538;28;20408;-87
2022/11/17 08:39:19;;;;;;;6.60;4.30;;;;;;;;;;4978022;28;20911;-91
2022/11/17 08:41:45;;;;;;;5.07;3.90;;;;;;;;;;4995611;28;20411;-87
2022/11/17 08:44:11;;;;;;;5.47;4.07;;;;;;;;;;4977524;28;20437;-89
2022/11/17 08:46:37;;;;;;;7.63;4.53;;;;;;;;;;4977285;28;20430;-88
2022/11/17 08:49:03;;;;;;;6.33;4.00;;;;;;;;;;4977731;28;20416;-88
2022/11/17 08:51:29;;;;;;;7.77;5.43;;;;;;;;;;4977462;28;20529;-86
2022/11/17 08:53:55;;;;;;;6.83;4.93;;;;;;;;;;4995249;28;20481;-91
2022/11/17 08:56:21;;;;;;;5.43;4.13;;;;;;;;;;4995685;28;20415;-90
2022/11/17 08:58:47;;;;;;;6.33;5.10;;;;;;;;;;4995688;28;20410;-88
2022/11/17 09:01:14;;;;;;;7.47;5.23;;;;;;;;;;4980214;28;20478;-86
2022/11/17 09:03:41;;;;;;;5.57;3.13;;;;;;;;;;4995400;28;20403;-87
2022/11/17 09:06:11;;;;;;;6.40;4.47;;;;;;;;;;4995181;28;20505;-87
2022/11/17 09:08:37;;;;;;;6.27;4.73;;;;;;;;;;4995102;28;20430;-88
2022/11/17 09:11:04;;;;;;;7.50;4.77;;;;;;;;;;4995063;28;20403;-87
2022/11/17 09:13:31;;;;;;;7.10;4.07;;;;;;;;;;4977645;28;20431;-86
2022/11/17 09:16:01;;;;;;;5.67;3.60;;;;;;;;;;4994301;28;20417;-87
2022/11/17 09:18:27;;;;;;;7.97;4.43;;;;;;;;;;4977534;28;20434;-88
2022/11/17 09:20:58;;;;;;;6.97;5.23;;;;;;;;;;4977158;28;20479;-87
2022/11/17 09:23:26;;;;;;;7.40;4.87;;;;;;;;;;4994701;28;20411;-86
2022/11/17 09:25:52;;;;;;;8.80;6.07;;;;;;;;;;4976974;28;20450;-87
2022/11/17 09:28:18;;;;;;;6.50;4.30;;;;;;;;;;4994500;28;20404;-90
2022/11/17 09:30:44;;;;;;;7.47;5.30;;;;;;;;;;4994344;28;20903;-88
2022/11/17 09:33:10;;;;;;;8.17;5.23;;;;;;;;;;4977073;28;20461;-87
2022/11/17 09:35:36;;;;;;;9.80;5.53;;;;;;;;;;4976798;28;20418;-87
2022/11/17 09:38:02;;;;;;;6.97;5.80;;;;;;;;;;4994285;28;20907;-89
2022/11/17 09:40:28;;;;;;;6.47;4.83;;;;;;;;;;4976667;28;20492;-89
2022/11/17 09:42:54;;;;;;;5.57;4.23;;;;;;;;;;4976026;28;20415;-86
2022/11/17 09:45:24;;;;;;;7.37;5.00;;;;;;;;;;4976072;28;20999;-87
2022/11/17 09:48:15;;;;;;;6.43;4.53;;;;;;;;;;4975869;28;20414;-87
2022/11/17 09:50:40;;;;;;;7.00;4.60;;;;;;;;;;4992786;28;20432;-89
2022/11/17 09:53:06;;;;;;;9.47;6.10;;;;;;;;;;4993930;28;20415;-87
2022/11/17 09:55:39;;;;;;;6.40;5.23;;;;;;;;;;4976265;28;20422;-86
2022/11/17 09:58:24;;;;;;;7.57;6.33;;;;;;;;;;4992636;28;20171;-86
2022/11/17 10:00:51;;;;;;;6.87;5.63;;;;;;;;;;4975531;28;20511;-87
2022/11/17 10:03:30;;;;;;;8.00;5.57;;;;;;;;;;4993631;28;20423;-88
2022/11/17 10:05:57;;;;;;;8.00;5.30;;;;;;;;;;4993300;28;20422;-86
2022/11/17 10:08:42;;;;;;;9.83;6.97;;;;;;;;;;4992301;28;20422;-86
2022/11/17 10:13:56;;;;;;;10.13;6.57;;;;;;;;;;4993436;28;20414;-88
2022/11/17 10:16:22;;;;;;;6.93;5.37;;;;;;;;;;4992582;28;20414;-86
2022/11/17 10:18:48;;;;;;;5.83;4.13;;;;;;;;;;4992911;28;20912;-86
2022/11/17 10:21:14;;;;;;;6.57;5.00;;;;;;;;;;4975261;28;20470;-88
2022/11/17 10:23:43;;;;;;;8.77;4.57;;;;;;;;;;4992714;28;20413;-90
2022/11/17 10:26:10;;;;;;;7.30;5.17;;;;;;;;;;4992737;28;20418;-86
2022/11/17 10:28:39;;;;;;;8.30;5.83;;;;;;;;;;4992785;28;20773;-89
2022/11/17 10:31:16;;;;;;;10.90;7.80;;;;;;;;;;4992783;28;20478;-87
2022/11/17 10:33:46;;;;;;;7.77;5.50;;;;;;;;;;4975380;28;20419;-86
2022/11/17 10:36:23;;;;;;;8.70;4.80;;;;;;;;;;4975344;28;20419;-88
2022/11/17 10:38:50;;;;;;;6.60;5.90;;;;;;;;;;4993335;28;20419;-86
2022/11/17 10:41:37;;;;;;;9.63;5.60;;;;;;;;;;4958188;28;1020559;-91
2022/11/17 10:44:15;;;;;;;6.03;5.10;;;;;;;;;;4976250;28;20274;-88
2022/11/17 10:46:58;;;;;;;8.60;5.10;;;;;;;;;;4993367;28;20419;-88
2022/11/17 10:49:25;;;;;;;8.57;5.90;;;;;;;;;;4993713;28;20419;-88
2022/11/17 10:52:13;;;;;;;11.17;5.80;;;;;;;;;;4993392;28;20811;-86
2022/11/17 10:54:41;;;;;;;7.47;6.00;;;;;;;;;;4975848;28;20445;-88
2022/11/17 10:57:12;;;;;;;8.07;5.10;;;;;;;;;;4993282;28;20391;-87
2022/11/17 10:59:43;;;;;;;9.03;5.20;;;;;;;;;;4993286;28;20466;-87
2022/11/17 11:02:28;;;;;;;7.53;5.47;;;;;;;;;;4993081;28;20442;-86
2022/11/17 11:05:13;;;;;;;11.03;6.70;;;;;;;;;;4975996;28;20817;-86
2022/11/17 11:07:40;;;;;;;8.60;5.90;;;;;;;;;;4976076;28;20773;-88
2022/11/17 11:10:15;;;;;;;9.40;5.40;;;;;;;;;;4996881;28;20415;-87
2022/11/17 11:12:42;;;;;;;9.27;5.50;;;;;;;;;;4996829;28;20841;-88
2022/11/17 11:15:14;;;;;;;6.90;5.30;;;;;;;;;;4979329;28;20530;-87
2022/11/17 11:17:40;;;;;;;8.83;6.17;;;;;;;;;;4996345;28;20435;-86
2022/11/17 11:20:12;;;;;;;9.33;6.23;;;;;;;;;;4996692;28;20470;-86
2022/11/17 11:22:51;;;;;;;8.20;5.13;;;;;;;;;;4979131;28;20426;-87
2022/11/17 11:25:26;;;;;;;8.37;5.67;;;;;;;;;;4999187;28;20896;-88
2022/11/17 11:28:00;;;;;;;10.60;6.47;;;;;;;;;;4996543;28;20406;-86
2022/11/17 11:30:27;;;;;;;8.10;6.40;;;;;;;;;;4995934;28;20446;-85
2022/11/17 11:33:24;;;;;;;9.03;5.10;;;;;;;;;;4996430;28;20443;-86
2022/11/17 11:35:57;;;;;;;10.30;5.90;;;;;;;;;;5012537;28;20407;-86
2022/11/17 11:38:45;;;;;;;6.60;4.60;;;;;;;;;;5013381;28;20423;-87
2022/11/17 11:41:18;;;;;;;9.00;5.90;;;;;;;;;;4996476;28;20514;-89
2022/11/17 11:43:55;;;;;;;6.10;4.70;;;;;;;;;;5008414;28;20546;-86
2022/11/17 11:46:30;;;;;;;11.37;6.23;;;;;;;;;;4996234;28;20757;-88
2022/11/17 11:48:57;;;;;;;9.13;5.67;;;;;;;;;;4978810;28;20504;-86
2022/11/17 11:51:34;;;;;;;7.87;5.80;;;;;;;;;;4996013;28;20437;-87
2022/11/17 11:54:22;;;;;;;10.00;6.80;;;;;;;;;;4996075;28;20407;-88
2022/11/17 11:56:49;;;;;;;7.23;5.03;;;;;;;;;;4995398;28;20399;-86
2022/11/17 11:59:19;;;;;;;8.93;5.10;;;;;;;;;;4978316;28;20426;-86
2022/11/17 12:01:45;;;;;;;8.20;5.17;;;;;;;;;;4995436;28;20486;-86
2022/11/17 12:04:10;;;;;;;10.33;6.63;;;;;;;;;;4978377;28;20420;-87
2022/11/17 12:06:39;;;;;;;11.40;6.70;;;;;;;;;;4978444;28;20600;-85
2022/11/17 12:09:31;;;;;;;6.47;3.10;;;;;;;;;;4995687;28;20407;-88
2022/11/17 12:12:00;;;;;;;10.70;6.40;;;;;;;;;;4974691;28;20944;-86
2022/11/17 12:14:34;;;;;;;10.13;6.20;;;;;;;;;;4995667;28;20415;-86
2022/11/17 12:17:24;;;;;;;11.40;5.43;;;;;;;;;;4977896;28;20411;-88
2022/11/17 12:19:58;;;;;;;8.27;6.00;;;;;;;;;;4994431;28;20462;-86
2022/11/17 12:22:33;;;;;;;10.93;6.97;;;;;;;;;;4995546;28;20422;-88
2022/11/17 12:25:13;;;;;;;9.07;6.00;;;;;;;;;;4995388;28;20402;-89
2022/11/17 12:27:40;;;;;;;7.30;5.50;;;;;;;;;;4977724;28;20791;-87
2022/11/17 12:30:26;;;;;;;13.77;7.10;;;;;;;;;;4995162;28;20896;-87
2022/11/17 12:32:53;;;;;;;8.53;6.90;;;;;;;;;;4977543;28;20427;-87
2022/11/17 12:35:32;;;;;;;6.60;4.33;;;;;;;;;;4977730;28;20419;-89
2022/11/17 12:38:16;;;;;;;8.90;5.60;;;;;;;;;;4977634;28;20951;-87
2022/11/17 12:40:42;;;;;;;10.33;6.83;;;;;;;;;;4976681;28;20487;-86
2022/11/17 12:43:14;;;;;;;10.90;6.60;;;;;;;;;;4976621;28;20455;-86
2022/11/17 12:45:53;;;;;;;9.00;6.47;;;;;;;;;;4976375;28;20510;-87
2022/11/17 12:48:23;;;;;;;10.40;7.23;;;;;;;;;;4976584;28;20948;-88
2022/11/17 12:50:57;;;;;;;9.30;6.07;;;;;;;;;;4977291;28;20429;-88
2022/11/17 12:53:36;;;;;;;10.33;6.67;;;;;;;;;;4977257;28;20458;-89
2022/11/17 12:56:11;;;;;;;11.20;6.33;;;;;;;;;;4984748;28;20419;-87
2022/11/17 12:58:37;;;;;;;9.43;6.87;;;;;;;;;;4970406;28;20576;-87
2022/11/17 13:01:32;;;;;;;12.67;7.90;;;;;;;;;;4982361;28;20554;-87
2022/11/17 13:04:01;;;;;;;8.87;5.60;;;;;;;;;;4976823;28;20416;-87
2022/11/17 13:06:27;;;;;;;9.10;6.47;;;;;;;;;;4968919;28;20423;-88
2022/11/17 13:08:57;;;;;;;14.70;8.30;;;;;;;;;;4964731;28;20416;-86
2022/11/17 13:11:23;;;;;;;9.50;6.47;;;;;;;;;;4968909;28;20515;-86
2022/11/17 13:13:49;;;;;;;8.30;6.00;;;;;;;;;;4982653;28;20968;-87
2022/11/17 13:16:19;;;;;;;11.50;7.77;;;;;;;;;;4984243;28;20411;-87
2022/11/17 13:18:46;;;;;;;9.73;7.23;;;;;;;;;;4981176;28;20423;-86
2022/11/17 13:21:30;;;;;;;10.43;8.50;;;;;;;;;;4962261;28;20843;-85
2022/11/17 13:23:57;;;;;;;9.63;5.70;;;;;;;;;;4965182;28;20443;-87
2022/11/17 13:26:34;;;;;;;10.60;7.20;;;;;;;;;;4987754;28;20502;-87
2022/11/17 13:29:03;;;;;;;9.60;7.30;;;;;;;;;;4985563;28;20439;-86
2022/11/17 13:31:29;;;;;;;12.53;8.10;;;;;;;;;;4979531;28;20411;-86
2022/11/17 13:34:16;;;;;;;10.73;6.50;;;;;;;;;;4984577;28;20410;-85
2022/11/17 13:36:56;;;;;;;11.17;7.07;;;;;;;;;;4968499;28;20506;-86
2022/11/17 13:39:25;;;;;;;10.67;6.23;;;;;;;;;;4975691;28;20998;-86
2022/11/17 13:41:51;;;;;;;11.10;6.93;;;;;;;;;;4984402;28;20423;-86
2022/11/17 13:44:21;;;;;;;9.73;6.50;;;;;;;;;;4984917;28;20494;-86
2022/11/17 13:46:47;;;;;;;10.47;7.07;;;;;;;;;;4981893;28;20419;-86
2022/11/17 13:49:31;;;;;;;11.73;6.43;;;;;;;;;;4966694;28;20422;-87
2022/11/17 13:51:57;;;;;;;10.57;6.57;;;;;;;;;;4982523;28;20426;-87
2022/11/17 13:54:23;;;;;;;13.60;8.10;;;;;;;;;;4984626;28;20423;-88
2022/11/17 13:56:51;;;;;;;8.23;6.43;;;;;;;;;;4964493;28;20431;-86
2022/11/17 13:59:34;;;;;;;15.03;7.73;;;;;;;;;;4966066;28;20561;-89
2022/11/17 14:02:15;;;;;;;9.77;5.90;;;;;;;;;;4964970;28;20486;-87
2022/11/17 14:05:03;;;;;;;11.00;6.30;;;;;;;;;;4983055;28;20424;-85
2022/11/17 14:07:30;;;;;;;15.37;9.77;;;;;;;;;;4984015;28;20420;-90
2022/11/17 14:10:12;;;;;;;10.70;6.77;;;;;;;;;;4966223;28;20426;-89
2022/11/17 14:12:37;;;;;;;9.93;5.80;;;;;;;;;;4985553;28;20919;-86
2022/11/17 14:15:13;;;;;;;12.80;8.00;;;;;;;;;;4965590;28;20420;-88
2022/11/17 14:17:39;;;;;;;11.70;7.40;;;;;;;;;;4965090;28;20763;-88
2022/11/17 14:20:23;;;;;;;10.57;7.20;;;;;;;;;;4970502;28;20526;-87
2022/11/17 14:23:15;;;;;;;15.57;7.90;;;;;;;;;;4963733;28;20426;-87
2022/11/17 14:25:42;;;;;;;10.87;6.27;;;;;;;;;;4963918;28;20427;-87
2022/11/17 14:28:12;;;;;;;13.23;7.80;;;;;;;;;;4963693;28;20444;-86
2022/11/17 14:30:38;;;;;;;15.80;8.57;;;;;;;;;;4980710;28;20420;-89
2022/11/17 14:33:04;;;;;;;13.13;8.97;;;;;;;;;;4966312;28;20407;-86
2022/11/17 14:35:30;;;;;;;12.50;7.83;;;;;;;;;;4961321;28;20798;-86
2022/11/17 14:38:02;;;;;;;10.80;7.20;;;;;;;;;;4984483;28;20906;-87
2022/11/17 14:40:28;;;;;;;11.83;8.20;;;;;;;;;;4981470;28;20486;-87
2022/11/17 14:42:54;;;;;;;14.50;9.83;;;;;;;;;;4986641;28;20422;-87
2022/11/17 14:45:20;;;;;;;13.90;8.27;;;;;;;;;;4984913;28;20449;-86
2022/11/17 14:47:47;;;;;;;12.33;6.57;;;;;;;;;;4985736;28;20416;-88
2022/11/17 14:50:17;;;;;;;11.57;7.10;;;;;;;;;;4990515;28;20882;-90
2022/11/17 14:52:43;;;;;;;13.97;6.10;;;;;;;;;;4985578;28;21072;-86
2022/11/17 14:55:10;;;;;;;12.03;7.30;;;;;;;;;;4965434;28;20923;-87
2022/11/17 14:57:38;;;;;;;14.03;8.10;;;;;;;;;;4982669;28;20416;-86
2022/11/17 15:00:06;;;;;;;14.10;7.20;;;;;;;;;;4984927;28;21042;-86
2022/11/17 15:02:32;;;;;;;8.37;5.60;;;;;;;;;;4984800;28;20887;-88
2022/11/17 15:04:58;;;;;;;11.73;7.37;;;;;;;;;;4966939;28;20429;-86
2022/11/17 15:07:24;;;;;;;12.13;6.73;;;;;;;;;;4968583;28;20499;-87
2022/11/17 15:09:50;;;;;;;10.90;6.90;;;;;;;;;;4987844;28;20411;-89
2022/11/17 15:12:16;;;;;;;13.33;7.57;;;;;;;;;;4987726;28;20422;-87
2022/11/17 15:14:42;;;;;;;11.27;6.70;;;;;;;;;;4995893;28;20833;-87
2022/11/17 15:17:08;;;;;;;9.60;6.17;;;;;;;;;;4995969;28;20407;-86
2022/11/17 15:19:35;;;;;;;10.43;6.43;;;;;;;;;;4996281;28;20407;-86